createdAt,value
2023-03-06T00:01:49.520Z,2.00
2023-03-06T00:04:16.081Z,1.50
2023-03-06T00:06:42.762Z,2.00
2023-03-06T00:09:10.516Z,1.80
2023-03-06T00:11:37.532Z,1.73
2023-03-06T00:14:04.194Z,1.60
2023-03-06T00:16:30.920Z,1.98
2023-03-06T00:18:57.533Z,1.90
2023-03-06T00:21:24.189Z,2.08
2023-03-06T00:23:50.784Z,2.00
2023-03-06T00:26:17.345Z,1.93
2023-03-06T00:28:44.081Z,2.22
2023-03-06T00:31:10.768Z,1.90
2023-03-06T00:33:37.416Z,1.67
2023-03-06T00:36:05.661Z,2.20
2023-03-06T00:38:35.390Z,1.83
2023-03-06T00:41:12.249Z,2.05
2023-03-06T00:43:39.500Z,1.70
2023-03-06T00:46:06.380Z,2.13
2023-03-06T00:48:34.020Z,2.05
2023-03-06T00:51:01.435Z,2.30
2023-03-06T00:53:28.134Z,2.55
2023-03-06T00:55:54.847Z,2.50
2023-03-06T00:58:21.493Z,2.60
2023-03-06T01:00:48.240Z,2.63
2023-03-06T01:03:14.981Z,2.73
2023-03-06T01:05:41.640Z,2.90
2023-03-06T01:08:08.774Z,3.10
2023-03-06T01:10:39.496Z,3.30
2023-03-06T01:13:06.488Z,3.55
2023-03-06T01:15:33.234Z,3.60
2023-03-06T01:18:00.122Z,3.65
2023-03-06T01:20:27.089Z,3.03
2023-03-06T01:22:55.375Z,3.30
2023-03-06T01:25:23.216Z,3.35
2023-03-06T01:27:49.878Z,3.57
2023-03-06T01:30:17.007Z,3.50
2023-03-06T01:32:43.707Z,3.60
2023-03-06T01:35:11.326Z,4.30
2023-03-06T01:37:39.064Z,4.13
2023-03-06T01:40:08.093Z,4.23
2023-03-06T01:42:34.900Z,4.53
2023-03-06T01:45:27.393Z,4.38
2023-03-06T01:47:54.052Z,3.95
2023-03-06T01:50:20.861Z,4.18
2023-03-06T01:52:51.921Z,4.10
2023-03-06T01:55:37.197Z,4.00
2023-03-06T01:58:08.798Z,4.32
2023-03-06T02:00:35.393Z,3.83
2023-03-06T02:03:15.722Z,4.28
2023-03-06T02:05:43.596Z,4.63
2023-03-06T02:08:13.218Z,4.32
2023-03-06T02:10:43.894Z,4.43
2023-03-06T02:13:10.739Z,4.55
2023-03-06T02:15:37.348Z,4.82
2023-03-06T02:18:04.221Z,5.67
2023-03-06T02:20:39.867Z,5.55
2023-03-06T02:23:34.236Z,5.70
2023-03-06T02:26:02.265Z,5.85
2023-03-06T02:28:28.964Z,6.30
2023-03-06T02:30:56.860Z,6.90
2023-03-06T02:33:27.516Z,6.75
2023-03-06T02:36:06.671Z,6.75
2023-03-06T02:38:54.853Z,6.47
2023-03-06T02:41:21.452Z,7.18
2023-03-06T02:43:49.006Z,6.57
2023-03-06T02:46:15.902Z,7.13
2023-03-06T02:48:42.574Z,7.47
2023-03-06T02:51:09.178Z,8.10
2023-03-06T02:53:35.784Z,8.10
2023-03-06T02:56:02.543Z,7.07
2023-03-06T02:58:29.119Z,7.72
2023-03-06T03:00:55.712Z,8.07
2023-03-06T03:03:22.613Z,7.65
2023-03-06T03:05:49.240Z,8.15
2023-03-06T03:08:16.015Z,8.30
2023-03-06T03:10:42.673Z,8.70
2023-03-06T03:13:09.282Z,8.27
2023-03-06T03:15:36.215Z,8.45
2023-03-06T03:18:02.866Z,8.40
2023-03-06T03:20:29.621Z,8.10
2023-03-06T03:22:56.487Z,8.05
2023-03-06T03:25:25.419Z,7.93
2023-03-06T03:27:52.169Z,7.63
2023-03-06T03:30:18.955Z,7.88
2023-03-06T03:32:45.591Z,7.80
2023-03-06T03:35:12.852Z,8.07
2023-03-06T03:37:39.558Z,7.10
2023-03-06T03:40:07.234Z,7.43
2023-03-06T03:42:33.998Z,7.40
2023-03-06T03:45:00.649Z,7.23
2023-03-06T03:47:27.341Z,7.25
2023-03-06T03:49:53.956Z,7.20
2023-03-06T03:52:20.729Z,6.80
2023-03-06T03:54:47.344Z,8.30
2023-03-06T03:57:13.946Z,7.93
2023-03-06T03:59:40.568Z,7.55
2023-03-06T04:02:07.271Z,7.47
2023-03-06T04:04:33.950Z,8.05
2023-03-06T04:07:00.763Z,6.88
2023-03-06T04:09:27.564Z,7.53
2023-03-06T04:11:54.172Z,7.50
2023-03-06T04:14:20.803Z,7.03
2023-03-06T04:16:47.434Z,7.07
2023-03-06T04:19:14.029Z,7.82
2023-03-06T04:21:40.617Z,7.73
2023-03-06T04:24:07.840Z,6.68
2023-03-06T04:26:35.876Z,6.65
2023-03-06T04:29:02.654Z,6.28
2023-03-06T04:31:29.279Z,6.13
2023-03-06T04:33:55.908Z,6.77
2023-03-06T04:36:34.087Z,6.15
2023-03-06T04:39:01.330Z,6.20
2023-03-06T04:41:28.258Z,5.93
2023-03-06T04:43:55.041Z,5.47
2023-03-06T04:46:21.719Z,5.40
2023-03-06T04:48:48.367Z,4.78
2023-03-06T04:51:15.409Z,4.68
2023-03-06T04:53:42.061Z,4.55
2023-03-06T04:56:08.815Z,4.30
2023-03-06T04:58:35.570Z,4.70
2023-03-06T05:01:02.508Z,4.38
2023-03-06T05:03:29.195Z,4.60
2023-03-06T05:05:55.842Z,4.22
2023-03-06T05:08:23.752Z,3.92
2023-03-06T05:10:59.178Z,4.07
2023-03-06T05:13:26.794Z,4.43
2023-03-06T05:15:54.021Z,3.72
2023-03-06T05:18:21.287Z,3.78
2023-03-06T05:20:47.865Z,3.22
2023-03-06T05:23:14.580Z,3.33
2023-03-06T05:25:41.685Z,3.50
2023-03-06T05:28:08.544Z,3.45
2023-03-06T05:30:35.288Z,3.13
2023-03-06T05:33:01.952Z,2.60
2023-03-06T05:35:28.652Z,3.07
2023-03-06T05:37:55.307Z,2.83
2023-03-06T05:40:22.208Z,2.70
2023-03-06T05:42:48.832Z,2.85
2023-03-06T05:45:15.624Z,2.78
2023-03-06T05:47:42.306Z,2.53
2023-03-06T05:50:10.526Z,2.80
2023-03-06T05:52:39.500Z,2.90
2023-03-06T05:55:07.398Z,2.40
2023-03-06T05:57:34.130Z,2.92
2023-03-06T06:00:00.785Z,2.67
2023-03-06T06:02:27.381Z,2.53
2023-03-06T06:04:54.022Z,2.60
2023-03-06T06:07:20.628Z,2.42
2023-03-06T06:09:47.187Z,2.83
2023-03-06T06:12:14.065Z,2.57
2023-03-06T06:14:40.876Z,2.63
2023-03-06T06:17:07.618Z,2.40
2023-03-06T06:19:34.230Z,2.30
2023-03-06T06:22:02.672Z,2.35
2023-03-06T06:24:30.640Z,2.07
2023-03-06T06:26:58.616Z,1.98
2023-03-06T06:29:26.203Z,2.47
2023-03-06T06:31:53.806Z,1.80
2023-03-06T06:34:21.233Z,2.30
2023-03-06T06:36:48.273Z,2.20
2023-03-06T06:39:16.684Z,2.17
2023-03-06T06:41:57.580Z,1.85
2023-03-06T06:44:26.284Z,1.50
2023-03-06T06:49:40.437Z,1.97
2023-03-06T06:52:07.712Z,2.10
2023-03-06T06:54:34.822Z,1.90
2023-03-06T06:57:01.590Z,1.50
2023-03-06T06:59:28.287Z,1.25
2023-03-06T07:01:54.902Z,1.90
2023-03-06T07:04:21.611Z,1.60
2023-03-06T07:06:48.263Z,1.30
2023-03-06T07:09:14.965Z,1.27
2023-03-06T07:11:41.779Z,1.30
2023-03-06T07:14:08.789Z,1.20
2023-03-06T07:16:35.511Z,1.20
2023-03-06T07:19:02.424Z,1.50
2023-03-06T07:21:29.000Z,1.33
2023-03-06T07:23:57.382Z,1.33
2023-03-06T07:26:26.087Z,1.33
2023-03-06T07:28:53.661Z,1.40
2023-03-06T07:31:22.698Z,1.50
2023-03-06T07:33:50.628Z,1.15
2023-03-06T07:36:17.931Z,1.42
2023-03-06T07:38:44.599Z,1.60
2023-03-06T07:41:13.627Z,1.30
2023-03-06T07:43:41.707Z,1.23
2023-03-06T07:46:09.215Z,1.30
2023-03-06T07:48:37.608Z,1.30
2023-03-06T07:51:12.055Z,1.00
2023-03-06T07:53:38.698Z,1.35
2023-03-06T07:56:09.278Z,1.08
2023-03-06T07:58:38.126Z,1.13
2023-03-06T08:01:14.358Z,1.23
2023-03-06T08:03:41.234Z,1.00
2023-03-06T08:06:20.120Z,1.13
2023-03-06T08:08:47.937Z,1.13
2023-03-06T08:11:16.888Z,1.17
2023-03-06T08:13:44.253Z,1.00
2023-03-06T08:16:11.239Z,1.00
2023-03-06T08:18:39.793Z,1.42
2023-03-06T08:21:12.681Z,0.98
2023-03-06T08:23:39.880Z,1.13
2023-03-06T08:26:11.868Z,0.85
2023-03-06T08:28:38.797Z,0.73
2023-03-06T08:31:19.667Z,0.70
2023-03-06T08:33:46.404Z,0.90
2023-03-06T08:36:13.035Z,0.90
2023-03-06T08:38:39.666Z,1.05
2023-03-06T08:41:06.431Z,0.80
2023-03-06T08:43:34.741Z,0.70
2023-03-06T08:46:02.065Z,0.90
2023-03-06T08:48:28.782Z,1.00
2023-03-06T08:50:55.467Z,0.80
2023-03-06T08:53:30.463Z,1.00
2023-03-06T08:56:03.957Z,0.80
2023-03-06T08:58:30.710Z,1.00
2023-03-06T09:00:58.250Z,0.98
2023-03-06T09:03:25.609Z,0.88
2023-03-06T09:05:52.212Z,0.87
2023-03-06T09:08:18.822Z,0.80
2023-03-06T09:10:47.879Z,1.00
2023-03-06T09:13:14.812Z,0.80
2023-03-06T09:15:41.383Z,1.10
2023-03-06T09:18:08.039Z,0.77
2023-03-06T09:20:34.708Z,0.60
2023-03-06T09:23:01.326Z,0.98
2023-03-06T09:25:27.965Z,1.02
2023-03-06T09:28:10.178Z,0.90
2023-03-06T09:30:40.664Z,0.90
2023-03-06T09:33:07.773Z,0.90
2023-03-06T09:35:34.457Z,0.80
2023-03-06T09:38:01.085Z,0.90
2023-03-06T09:41:03.090Z,0.80
2023-03-06T09:43:42.266Z,0.80
2023-03-06T09:46:32.796Z,1.40
2023-03-06T09:49:10.510Z,1.00
2023-03-06T09:51:49.765Z,0.90
2023-03-06T09:54:16.785Z,1.00
2023-03-06T09:56:47.768Z,1.00
2023-03-06T09:59:17.805Z,1.10
2023-03-06T10:01:54.348Z,1.15
2023-03-06T10:04:36.105Z,0.73
2023-03-06T10:07:26.716Z,0.80
2023-03-06T10:10:06.664Z,1.20
2023-03-06T10:12:37.850Z,1.20
2023-03-06T10:15:04.419Z,1.00
2023-03-06T10:17:35.954Z,1.10
2023-03-06T10:20:14.939Z,1.00
2023-03-06T10:23:24.623Z,1.07
2023-03-06T10:25:57.072Z,1.05
2023-03-06T10:28:44.179Z,1.10
2023-03-06T10:31:20.570Z,0.80
2023-03-06T10:33:57.611Z,0.85
2023-03-06T10:36:29.822Z,0.73
2023-03-06T10:38:58.710Z,1.23
2023-03-06T10:41:32.834Z,0.93
2023-03-06T10:44:05.423Z,0.90
2023-03-06T10:46:53.032Z,0.80
2023-03-06T10:49:37.450Z,0.80
2023-03-06T10:52:10.131Z,1.10
2023-03-06T10:54:39.937Z,1.15
2023-03-06T10:57:26.800Z,1.00
2023-03-06T11:00:06.752Z,1.00
2023-03-06T11:02:37.156Z,0.93
2023-03-06T11:05:04.590Z,0.68
2023-03-06T11:07:33.385Z,0.98
2023-03-06T11:10:15.582Z,1.05
2023-03-06T11:12:43.526Z,0.80
2023-03-06T11:15:21.229Z,1.10
2023-03-06T11:17:51.464Z,1.00
2023-03-06T11:20:21.490Z,0.70
2023-03-06T11:22:54.959Z,0.70
2023-03-06T11:25:26.324Z,0.85
2023-03-06T11:28:02.133Z,0.73
2023-03-06T11:30:44.036Z,0.80
2023-03-06T11:33:39.698Z,0.90
2023-03-06T11:36:31.498Z,0.68
2023-03-06T11:38:58.137Z,1.10
2023-03-06T11:41:33.596Z,0.90
2023-03-06T11:44:24.166Z,0.98
2023-03-06T11:47:18.249Z,1.10
2023-03-06T11:49:50.165Z,1.30
2023-03-06T11:52:29.529Z,1.38
2023-03-06T11:54:57.879Z,1.10
2023-03-06T11:57:42.320Z,1.30
2023-03-06T12:00:50.028Z,1.35
2023-03-06T12:03:28.932Z,1.25
2023-03-06T12:06:24.260Z,1.30
2023-03-06T12:09:17.161Z,1.53
2023-03-06T12:12:02.859Z,1.50
2023-03-06T12:14:52.152Z,1.48
2023-03-06T12:17:22.858Z,1.60
2023-03-06T12:20:16.445Z,1.30
2023-03-06T12:23:14.458Z,1.60
2023-03-06T12:25:56.472Z,1.45
2023-03-06T12:29:03.326Z,1.50
2023-03-06T12:31:49.460Z,1.73
2023-03-06T12:34:34.350Z,1.52
2023-03-06T12:37:19.589Z,1.80
2023-03-06T12:40:20.071Z,1.98
2023-03-06T12:43:07.113Z,1.60
2023-03-06T12:45:36.919Z,1.73
2023-03-06T12:48:10.855Z,1.60
2023-03-06T12:50:39.191Z,1.53
2023-03-06T12:53:08.460Z,1.58
2023-03-06T12:55:44.758Z,1.55
2023-03-06T12:58:34.288Z,1.98
2023-03-06T13:01:16.666Z,1.80
2023-03-06T13:04:17.347Z,1.83
2023-03-06T13:06:55.390Z,2.30
2023-03-06T13:09:30.984Z,2.03
2023-03-06T13:12:46.050Z,2.42
2023-03-06T13:15:40.274Z,2.80
2023-03-06T13:18:22.290Z,3.37
2023-03-06T13:20:50.469Z,3.75
2023-03-06T13:23:35.576Z,3.88
2023-03-06T13:26:06.679Z,3.28
2023-03-06T13:28:50.482Z,3.58
2023-03-06T13:31:38.127Z,4.00
2023-03-06T13:34:26.135Z,3.90
2023-03-06T13:36:52.708Z,3.85
2023-03-06T13:39:19.346Z,4.30
2023-03-06T13:41:56.993Z,4.40
2023-03-06T13:44:23.678Z,4.77
2023-03-06T13:47:01.842Z,3.83
2023-03-06T13:49:29.805Z,4.10
2023-03-06T13:52:38.324Z,4.45
2023-03-06T13:55:31.133Z,4.90
2023-03-06T13:58:18.661Z,5.17
2023-03-06T14:01:37.950Z,5.82
2023-03-06T14:04:31.374Z,5.80
2023-03-06T14:07:06.973Z,5.68
2023-03-06T14:09:38.340Z,6.05
2023-03-06T14:12:20.048Z,5.43
2023-03-06T14:15:18.506Z,5.60
2023-03-06T14:17:59.032Z,5.75
2023-03-06T14:20:49.326Z,5.88
2023-03-06T14:23:26.485Z,5.05
2023-03-06T14:26:15.197Z,4.97
2023-03-06T14:28:44.158Z,5.22
2023-03-06T14:31:18.112Z,4.85
2023-03-06T14:33:54.984Z,5.20
2023-03-06T14:36:30.633Z,5.05
2023-03-06T14:39:01.098Z,5.17
2023-03-06T14:41:34.629Z,5.43
2023-03-06T14:44:19.330Z,4.88
2023-03-06T14:46:54.894Z,3.63
2023-03-06T14:49:23.495Z,4.10
2023-03-06T14:51:55.921Z,3.57
2023-03-06T14:54:27.339Z,3.00
2023-03-06T14:57:00.119Z,3.00
2023-03-06T14:59:29.605Z,3.33
2023-03-06T15:02:02.655Z,3.65
2023-03-06T15:04:44.320Z,3.90
2023-03-06T15:07:24.257Z,3.65
2023-03-06T15:09:53.478Z,4.63
2023-03-06T15:12:20.034Z,4.63
2023-03-06T15:15:00.182Z,4.07
2023-03-06T15:17:30.831Z,3.70
2023-03-06T15:19:59.580Z,3.40
2023-03-06T15:22:35.604Z,3.42
2023-03-06T15:25:11.574Z,3.15
2023-03-06T15:27:38.158Z,3.58
2023-03-06T15:30:35.516Z,3.47
2023-03-06T15:33:22.916Z,3.67
2023-03-06T15:36:01.904Z,3.25
2023-03-06T15:38:43.225Z,3.50
2023-03-06T15:41:28.721Z,3.60
2023-03-06T15:43:57.350Z,3.93
2023-03-06T15:46:23.999Z,3.50
2023-03-06T15:49:04.520Z,3.92
2023-03-06T15:51:32.411Z,4.15
2023-03-06T15:54:11.588Z,4.00
2023-03-06T15:56:42.066Z,4.17
2023-03-06T15:59:25.503Z,4.88
2023-03-06T16:01:53.109Z,4.60
2023-03-06T16:04:20.103Z,5.38
2023-03-06T16:06:46.817Z,6.05
2023-03-06T16:09:13.956Z,5.97
2023-03-06T16:11:47.222Z,6.20
2023-03-06T16:14:23.689Z,6.90
2023-03-06T16:16:52.604Z,7.03
2023-03-06T16:19:29.241Z,7.68
2023-03-06T16:21:56.615Z,8.70
2023-03-06T16:24:24.762Z,9.75
2023-03-06T16:26:53.326Z,9.45
2023-03-06T16:29:23.763Z,9.63
2023-03-06T16:31:50.594Z,11.23
2023-03-06T16:34:19.698Z,10.77
2023-03-06T16:36:47.543Z,8.70
2023-03-06T16:39:19.586Z,10.93
2023-03-06T16:41:46.432Z,11.20
2023-03-06T16:44:13.304Z,11.20
2023-03-06T16:46:45.200Z,11.73
2023-03-06T16:49:20.840Z,11.90
2023-03-06T16:51:47.883Z,11.00
2023-03-06T16:54:14.677Z,11.82
2023-03-06T16:56:42.161Z,11.65
2023-03-06T16:59:09.733Z,11.40
2023-03-06T17:01:37.052Z,11.27
2023-03-06T17:04:03.951Z,11.68
2023-03-06T17:06:30.615Z,12.25
2023-03-06T17:09:00.262Z,12.30
2023-03-06T17:11:28.150Z,11.40
2023-03-06T17:13:55.215Z,10.98
2023-03-06T17:16:22.270Z,12.20
2023-03-06T17:18:49.640Z,12.65
2023-03-06T17:21:16.611Z,12.40
2023-03-06T17:23:44.390Z,10.70
2023-03-06T17:26:20.351Z,11.57
2023-03-06T17:28:52.341Z,12.10
2023-03-06T17:31:25.232Z,10.35
2023-03-06T17:33:56.697Z,11.02
2023-03-06T17:36:23.702Z,11.03
2023-03-06T17:38:53.791Z,10.20
2023-03-06T17:41:24.290Z,10.35
2023-03-06T17:43:58.275Z,11.23
2023-03-06T17:46:25.515Z,10.32
2023-03-06T17:48:52.266Z,11.00
2023-03-06T17:51:18.840Z,10.15
2023-03-06T17:53:45.456Z,11.15
2023-03-06T17:56:14.511Z,10.70
2023-03-06T17:58:41.226Z,11.40
2023-03-06T18:01:28.308Z,10.60
2023-03-06T18:03:54.939Z,10.85
2023-03-06T18:06:22.296Z,10.50
2023-03-06T18:08:52.289Z,12.55
2023-03-06T18:11:20.476Z,10.95
2023-03-06T18:13:47.219Z,12.00
2023-03-06T18:16:15.654Z,11.48
2023-03-06T18:18:42.364Z,11.93
2023-03-06T18:21:11.625Z,7.72
2023-03-06T18:23:39.745Z,11.80
2023-03-06T18:26:14.917Z,11.70
2023-03-06T18:28:44.695Z,12.70
2023-03-06T18:31:26.172Z,11.90
2023-03-06T18:33:57.670Z,12.57
2023-03-06T18:36:26.633Z,12.75
2023-03-06T18:38:53.685Z,12.30
2023-03-06T18:41:21.270Z,13.45
2023-03-06T18:43:52.607Z,13.52
2023-03-06T18:46:19.267Z,12.63
2023-03-06T18:48:45.848Z,13.73
2023-03-06T18:51:13.958Z,13.03
2023-03-06T18:53:40.941Z,13.90
2023-03-06T18:56:08.866Z,10.88
2023-03-06T18:58:36.209Z,12.40
2023-03-06T19:01:07.302Z,12.10
2023-03-06T19:03:34.046Z,13.87
2023-03-06T19:06:09.165Z,12.65
2023-03-06T19:08:37.364Z,14.02
2023-03-06T19:11:08.180Z,14.45
2023-03-06T19:13:35.236Z,13.18
2023-03-06T19:16:02.289Z,13.70
2023-03-06T19:18:29.753Z,14.02
2023-03-06T19:21:07.747Z,12.88
2023-03-06T19:23:34.406Z,14.73
2023-03-06T19:26:01.056Z,13.88
2023-03-06T19:28:28.041Z,12.17
2023-03-06T19:30:55.177Z,15.02
2023-03-06T19:33:22.452Z,13.00
2023-03-06T19:35:49.052Z,14.38
2023-03-06T19:38:15.684Z,14.50
2023-03-06T19:40:49.576Z,15.20
2023-03-06T19:43:16.292Z,14.50
2023-03-06T19:45:45.315Z,14.13
2023-03-06T19:48:12.363Z,15.85
2023-03-06T19:50:40.172Z,16.20
2023-03-06T19:53:07.728Z,14.37
2023-03-06T19:55:34.713Z,15.02
2023-03-06T19:58:01.661Z,15.85
2023-03-06T20:00:28.355Z,14.30
2023-03-06T20:02:55.330Z,15.77
2023-03-06T20:05:22.460Z,16.53
2023-03-06T20:07:49.729Z,16.23
2023-03-06T20:10:16.808Z,17.00
2023-03-06T20:12:43.612Z,14.90
2023-03-06T20:15:10.693Z,17.10
2023-03-06T20:17:40.356Z,16.17
2023-03-06T20:20:08.895Z,16.52
2023-03-06T20:22:35.699Z,15.88
2023-03-06T20:25:02.626Z,16.92
2023-03-06T20:27:29.199Z,16.42
2023-03-06T20:29:55.837Z,17.40
2023-03-06T20:32:22.501Z,17.25
2023-03-06T20:34:49.181Z,15.02
2023-03-06T20:37:15.833Z,15.05
2023-03-06T20:39:42.516Z,14.25
2023-03-06T20:42:09.317Z,17.37
2023-03-06T20:44:36.194Z,15.65
2023-03-06T20:47:02.814Z,17.05
2023-03-06T20:49:29.453Z,17.15
2023-03-06T20:51:56.588Z,16.35
2023-03-06T20:54:23.299Z,16.83
2023-03-06T20:56:50.333Z,17.10
2023-03-06T20:59:17.134Z,15.65
2023-03-06T21:01:45.548Z,15.20
2023-03-06T21:04:16.122Z,16.75
2023-03-06T21:06:46.269Z,16.87
2023-03-06T21:09:15.782Z,16.30
2023-03-06T21:11:42.653Z,17.67
2023-03-06T21:14:09.591Z,16.17
2023-03-06T21:16:36.322Z,17.48
2023-03-06T21:19:03.351Z,17.17
2023-03-06T21:21:32.827Z,18.02
2023-03-06T21:23:59.629Z,17.02
2023-03-06T21:26:29.648Z,18.38
2023-03-06T21:28:57.995Z,16.90
2023-03-06T21:31:25.232Z,14.87
2023-03-06T21:33:52.006Z,14.38
2023-03-06T21:36:21.622Z,13.68
2023-03-06T21:38:49.418Z,16.42
2023-03-06T21:41:25.410Z,16.17
2023-03-06T21:44:05.416Z,14.90
2023-03-06T21:46:32.790Z,13.20
2023-03-06T21:48:59.618Z,12.25
2023-03-06T21:51:27.790Z,12.23
2023-03-06T21:53:55.190Z,12.10
2023-03-06T21:56:25.209Z,11.83
2023-03-06T21:58:52.387Z,13.07
2023-03-06T22:01:22.784Z,12.90
2023-03-06T22:03:49.511Z,12.70
2023-03-06T22:06:18.472Z,12.40
2023-03-06T22:08:45.625Z,12.17
2023-03-06T22:11:18.677Z,10.80
2023-03-06T22:13:46.242Z,10.75
2023-03-06T22:16:13.643Z,9.65
2023-03-06T22:18:43.618Z,8.23
2023-03-06T22:21:13.266Z,8.53
2023-03-06T22:23:42.641Z,7.78
2023-03-06T22:26:12.638Z,7.47
2023-03-06T22:28:39.950Z,7.10
2023-03-06T22:31:08.028Z,6.57
2023-03-06T22:33:35.161Z,6.37
2023-03-06T22:36:06.103Z,5.40
2023-03-06T22:38:34.865Z,5.85
2023-03-06T22:41:01.872Z,5.55
2023-03-06T22:43:28.571Z,5.10
2023-03-06T22:45:55.270Z,5.20
2023-03-06T22:48:22.995Z,5.13
2023-03-06T22:50:49.609Z,4.20
2023-03-06T22:53:16.263Z,4.90
2023-03-06T22:55:42.878Z,4.38
2023-03-06T22:58:09.489Z,4.77
2023-03-06T23:00:36.106Z,4.13
2023-03-06T23:03:02.807Z,3.80
2023-03-06T23:05:29.831Z,4.07
2023-03-06T23:07:56.534Z,4.18
2023-03-06T23:10:23.213Z,3.67
2023-03-06T23:12:49.825Z,3.80
2023-03-06T23:15:16.509Z,3.60
2023-03-06T23:17:43.068Z,3.80
2023-03-06T23:20:11.779Z,3.67
2023-03-06T23:22:38.371Z,3.47
2023-03-06T23:25:05.940Z,3.50
2023-03-06T23:27:33.285Z,3.30
2023-03-06T23:29:59.922Z,3.90
2023-03-06T23:32:26.613Z,3.53
2023-03-06T23:34:53.476Z,4.27
2023-03-06T23:37:20.388Z,4.07
2023-03-06T23:39:46.993Z,3.90
2023-03-06T23:42:13.605Z,4.22
2023-03-06T23:44:40.388Z,5.45
2023-03-06T23:47:07.063Z,5.43
2023-03-06T23:49:33.688Z,5.40
2023-03-06T23:52:00.336Z,5.15
2023-03-06T23:54:26.964Z,6.03
2023-03-06T23:56:53.528Z,6.43
2023-03-06T23:59:20.162Z,6.97
